This is the latest recevied weather packets stored in our database for station/object OK9CPU-9. If no packets are shown the sender has not sent any weather packets the latest 10 day(s).
| Time | Temp. | Humidity | Pressure | Rain* | Wind** | Luminosity | Snow |
|---|---|---|---|---|---|---|---|
| 1788118236 | 22.78° C | 33% | 1015.4 hPa | - | - | - | - |
| 1788113260 | 25° C | 33% | 1014.8 hPa | - | - | - | - |
| 1788106295 | 30.56° C | 30% | 1014.2 hPa | - | - | - | - |
| 1788082414 | 42.78° C | 17% | 1017.3 hPa | - | - | - | - |
| 1788080424 | 41.67° C | 17% | 1017.5 hPa | - | - | - | - |
| 1788079429 | 40.56° C | 17% | 1017.8 hPa | - | - | - | - |
| 1788076444 | 38.33° C | 17% | 1017.7 hPa | - | - | - | - |
| 1788074454 | 35.56° C | 18% | 1017.6 hPa | - | - | - | - |
| 1788067488 | 21.11° C | 24% | 1017.2 hPa | - | - | - | - |
| 1788066494 | 18.89° C | 25% | 1017.2 hPa | - | - | - | - |
| 1788063508 | 12.78° C | 33% | 1017.2 hPa | - | - | - | - |
| 1788060523 | 12.78° C | 33% | 1017.2 hPa | - | - | - | - |
| 1788039628 | 17.22° C | 34% | 1016.8 hPa | - | - | - | - |
| 1788028682 | 21.11° C | 34% | 1016.3 hPa | - | - | - | - |
| 1788023707 | 25° C | 32% | 1015.6 hPa | - | - | - | - |
| 1788013757 | 36.11° C | 23% | 1015.7 hPa | - | - | - | - |
| 1788001816 | 36.11° C | 23% | 1016.7 hPa | - | - | - | - |
| 1787999826 | 34.44° C | 25% | 1017 hPa | - | - | - | - |
| 1787972960 | 18.33° C | 32% | 1015.5 hPa | - | - | - | - |
| 1787965000 | 19.44° C | 32% | 1014 hPa | - | - | - | - |
* Rain since midnight (hover to see other rain measurements)
** Current wind speed in m/s (hover to see current wind gust speed)